sensor_id;sensor_type;location;lat;lon;timestamp;P1;durP1;ratioP1;P2;durP2;ratioP2
48052;SDS011;33824;51.600;5.718;2023-02-24T00:02:22;27.35;;;4.68;;
48052;SDS011;33824;51.600;5.718;2023-02-24T00:04:48;19.75;;;3.33;;
48052;SDS011;33824;51.600;5.718;2023-02-24T00:07:16;29.48;;;4.10;;
48052;SDS011;33824;51.600;5.718;2023-02-24T00:09:43;22.50;;;3.47;;
48052;SDS011;33824;51.600;5.718;2023-02-24T00:12:14;24.27;;;3.70;;
48052;SDS011;33824;51.600;5.718;2023-02-24T00:14:42;28.38;;;3.80;;
48052;SDS011;33824;51.600;5.718;2023-02-24T00:17:09;22.10;;;3.50;;
48052;SDS011;33824;51.600;5.718;2023-02-24T00:19:38;27.42;;;3.55;;
48052;SDS011;33824;51.600;5.718;2023-02-24T00:22:04;22.02;;;3.88;;
48052;SDS011;33824;51.600;5.718;2023-02-24T00:24:33;19.92;;;4.30;;
48052;SDS011;33824;51.600;5.718;2023-02-24T00:27:00;30.17;;;4.57;;
48052;SDS011;33824;51.600;5.718;2023-02-24T00:29:32;15.82;;;3.40;;
48052;SDS011;33824;51.600;5.718;2023-02-24T00:31:58;24.92;;;3.13;;
48052;SDS011;33824;51.600;5.718;2023-02-24T00:34:27;24.70;;;3.05;;
48052;SDS011;33824;51.600;5.718;2023-02-24T00:36:54;21.08;;;2.75;;
48052;SDS011;33824;51.600;5.718;2023-02-24T00:39:20;25.15;;;5.03;;
48052;SDS011;33824;51.600;5.718;2023-02-24T00:41:54;20.20;;;3.17;;
48052;SDS011;33824;51.600;5.718;2023-02-24T00:44:38;22.92;;;3.53;;
48052;SDS011;33824;51.600;5.718;2023-02-24T00:47:06;15.95;;;3.25;;
48052;SDS011;33824;51.600;5.718;2023-02-24T00:49:34;12.90;;;2.50;;
48052;SDS011;33824;51.600;5.718;2023-02-24T00:52:08;34.13;;;5.18;;
48052;SDS011;33824;51.600;5.718;2023-02-24T00:54:43;23.95;;;3.65;;
48052;SDS011;33824;51.600;5.718;2023-02-24T00:57:09;17.48;;;2.53;;
48052;SDS011;33824;51.600;5.718;2023-02-24T00:59:35;19.00;;;3.17;;
48052;SDS011;33824;51.600;5.718;2023-02-24T01:02:02;32.25;;;4.22;;
48052;SDS011;33824;51.600;5.718;2023-02-24T01:04:28;23.05;;;3.30;;
48052;SDS011;33824;51.600;5.718;2023-02-24T01:06:54;23.02;;;3.28;;
48052;SDS011;33824;51.600;5.718;2023-02-24T01:09:35;24.08;;;3.50;;
48052;SDS011;33824;51.600;5.718;2023-02-24T01:12:02;30.30;;;5.18;;
48052;SDS011;33824;51.600;5.718;2023-02-24T01:14:47;28.88;;;4.95;;
48052;SDS011;33824;51.600;5.718;2023-02-24T01:17:14;19.85;;;3.15;;
48052;SDS011;33824;51.600;5.718;2023-02-24T01:19:42;15.93;;;2.95;;
48052;SDS011;33824;51.600;5.718;2023-02-24T01:22:11;21.58;;;3.70;;
48052;SDS011;33824;51.600;5.718;2023-02-24T01:24:39;15.27;;;3.67;;
48052;SDS011;33824;51.600;5.718;2023-02-24T01:27:10;20.13;;;2.97;;
48052;SDS011;33824;51.600;5.718;2023-02-24T01:29:37;18.50;;;3.17;;
48052;SDS011;33824;51.600;5.718;2023-02-24T01:32:06;20.00;;;3.72;;
48052;SDS011;33824;51.600;5.718;2023-02-24T01:34:37;16.52;;;2.72;;
48052;SDS011;33824;51.600;5.718;2023-02-24T01:37:03;19.25;;;2.92;;
48052;SDS011;33824;51.600;5.718;2023-02-24T01:39:29;24.20;;;2.95;;
48052;SDS011;33824;51.600;5.718;2023-02-24T01:41:54;17.10;;;3.67;;
48052;SDS011;33824;51.600;5.718;2023-02-24T01:46:52;13.95;;;2.90;;
48052;SDS011;33824;51.600;5.718;2023-02-24T01:49:20;16.75;;;3.30;;
48052;SDS011;33824;51.600;5.718;2023-02-24T01:51:50;18.67;;;4.18;;
48052;SDS011;33824;51.600;5.718;2023-02-24T01:54:22;21.40;;;3.92;;
48052;SDS011;33824;51.600;5.718;2023-02-24T01:56:51;22.10;;;3.72;;
48052;SDS011;33824;51.600;5.718;2023-02-24T01:59:20;16.63;;;3.13;;
48052;SDS011;33824;51.600;5.718;2023-02-24T02:01:48;19.27;;;4.55;;
48052;SDS011;33824;51.600;5.718;2023-02-24T02:04:25;16.50;;;3.38;;
48052;SDS011;33824;51.600;5.718;2023-02-24T02:06:59;26.70;;;3.45;;
48052;SDS011;33824;51.600;5.718;2023-02-24T02:09:25;12.35;;;2.60;;
48052;SDS011;33824;51.600;5.718;2023-02-24T02:11:52;17.80;;;2.85;;
48052;SDS011;33824;51.600;5.718;2023-02-24T02:14:18;23.42;;;3.15;;
48052;SDS011;33824;51.600;5.718;2023-02-24T02:22:59;17.58;;;2.67;;
48052;SDS011;33824;51.600;5.718;2023-02-24T02:39:46;15.73;;;3.05;;
48052;SDS011;33824;51.600;5.718;2023-02-24T02:45:14;9.55;;;3.05;;
48052;SDS011;33824;51.600;5.718;2023-02-24T02:47:58;13.43;;;2.30;;
48052;SDS011;33824;51.600;5.718;2023-02-24T02:50:44;19.05;;;3.17;;
48052;SDS011;33824;51.600;5.718;2023-02-24T02:53:18;13.73;;;2.28;;
48052;SDS011;33824;51.600;5.718;2023-02-24T02:55:57;18.90;;;2.75;;
48052;SDS011;33824;51.600;5.718;2023-02-24T02:58:27;18.88;;;2.65;;
48052;SDS011;33824;51.600;5.718;2023-02-24T03:03:36;12.60;;;2.03;;
48052;SDS011;33824;51.600;5.718;2023-02-24T03:06:05;17.50;;;3.88;;
48052;SDS011;33824;51.600;5.718;2023-02-24T03:08:52;16.73;;;2.30;;
48052;SDS011;33824;51.600;5.718;2023-02-24T03:11:22;19.33;;;3.28;;
48052;SDS011;33824;51.600;5.718;2023-02-24T03:13:49;14.80;;;2.60;;
48052;SDS011;33824;51.600;5.718;2023-02-24T03:16:18;18.98;;;3.70;;
48052;SDS011;33824;51.600;5.718;2023-02-24T03:19:02;17.00;;;2.58;;
48052;SDS011;33824;51.600;5.718;2023-02-24T03:21:32;19.85;;;2.88;;
48052;SDS011;33824;51.600;5.718;2023-02-24T03:24:02;17.05;;;3.00;;
48052;SDS011;33824;51.600;5.718;2023-02-24T03:28:57;13.45;;;3.15;;
48052;SDS011;33824;51.600;5.718;2023-02-24T03:36:55;22.13;;;2.83;;
48052;SDS011;33824;51.600;5.718;2023-02-24T03:39:22;14.50;;;2.30;;
48052;SDS011;33824;51.600;5.718;2023-02-24T03:44:34;13.30;;;2.92;;
48052;SDS011;33824;51.600;5.718;2023-02-24T03:47:00;18.25;;;3.25;;
48052;SDS011;33824;51.600;5.718;2023-02-24T03:49:26;11.45;;;1.92;;
48052;SDS011;33824;51.600;5.718;2023-02-24T04:00:23;15.48;;;2.65;;
48052;SDS011;33824;51.600;5.718;2023-02-24T04:03:17;22.90;;;2.88;;
48052;SDS011;33824;51.600;5.718;2023-02-24T04:05:53;11.88;;;2.38;;
48052;SDS011;33824;51.600;5.718;2023-02-24T04:08:35;8.15;;;2.15;;
48052;SDS011;33824;51.600;5.718;2023-02-24T04:11:11;11.18;;;2.78;;
48052;SDS011;33824;51.600;5.718;2023-02-24T04:13:46;12.05;;;2.58;;
48052;SDS011;33824;51.600;5.718;2023-02-24T04:16:19;9.90;;;2.78;;
48052;SDS011;33824;51.600;5.718;2023-02-24T04:18:54;17.23;;;2.50;;
48052;SDS011;33824;51.600;5.718;2023-02-24T04:21:23;18.33;;;2.60;;
48052;SDS011;33824;51.600;5.718;2023-02-24T04:23:52;16.00;;;2.90;;
48052;SDS011;33824;51.600;5.718;2023-02-24T04:26:18;17.17;;;3.20;;
48052;SDS011;33824;51.600;5.718;2023-02-24T04:28:46;14.35;;;3.05;;
48052;SDS011;33824;51.600;5.718;2023-02-24T04:31:15;16.58;;;3.10;;
48052;SDS011;33824;51.600;5.718;2023-02-24T04:33:43;13.80;;;2.53;;
48052;SDS011;33824;51.600;5.718;2023-02-24T04:36:18;11.02;;;2.45;;
48052;SDS011;33824;51.600;5.718;2023-02-24T04:38:45;20.55;;;2.97;;
48052;SDS011;33824;51.600;5.718;2023-02-24T04:41:12;15.73;;;3.08;;
48052;SDS011;33824;51.600;5.718;2023-02-24T04:43:45;15.23;;;2.53;;
48052;SDS011;33824;51.600;5.718;2023-02-24T04:46:12;10.30;;;2.88;;
48052;SDS011;33824;51.600;5.718;2023-02-24T04:48:37;17.98;;;2.50;;
48052;SDS011;33824;51.600;5.718;2023-02-24T04:51:03;14.88;;;2.75;;
48052;SDS011;33824;51.600;5.718;2023-02-24T04:53:30;17.52;;;3.35;;
48052;SDS011;33824;51.600;5.718;2023-02-24T04:55:56;16.27;;;3.42;;
48052;SDS011;33824;51.600;5.718;2023-02-24T04:58:32;10.23;;;2.63;;
48052;SDS011;33824;51.600;5.718;2023-02-24T05:00:58;18.08;;;2.53;;
48052;SDS011;33824;51.600;5.718;2023-02-24T05:03:24;14.50;;;2.10;;
48052;SDS011;33824;51.600;5.718;2023-02-24T05:05:57;18.63;;;2.90;;
48052;SDS011;33824;51.600;5.718;2023-02-24T05:08:27;14.60;;;2.80;;
48052;SDS011;33824;51.600;5.718;2023-02-24T05:10:55;18.35;;;2.60;;
48052;SDS011;33824;51.600;5.718;2023-02-24T05:13:27;11.35;;;2.40;;
48052;SDS011;33824;51.600;5.718;2023-02-24T05:15:57;17.55;;;2.85;;
48052;SDS011;33824;51.600;5.718;2023-02-24T05:18:24;13.88;;;2.40;;
48052;SDS011;33824;51.600;5.718;2023-02-24T05:20:51;14.18;;;2.55;;
48052;SDS011;33824;51.600;5.718;2023-02-24T05:23:41;18.77;;;3.35;;
48052;SDS011;33824;51.600;5.718;2023-02-24T05:26:09;17.45;;;2.45;;
48052;SDS011;33824;51.600;5.718;2023-02-24T05:28:37;13.73;;;2.40;;
48052;SDS011;33824;51.600;5.718;2023-02-24T05:31:06;13.05;;;2.13;;
48052;SDS011;33824;51.600;5.718;2023-02-24T05:33:36;19.15;;;2.05;;
48052;SDS011;33824;51.600;5.718;2023-02-24T05:36:06;14.63;;;1.92;;
48052;SDS011;33824;51.600;5.718;2023-02-24T05:38:34;19.20;;;2.28;;
48052;SDS011;33824;51.600;5.718;2023-02-24T05:41:20;17.02;;;3.20;;
48052;SDS011;33824;51.600;5.718;2023-02-24T05:43:50;11.40;;;2.90;;
48052;SDS011;33824;51.600;5.718;2023-02-24T05:46:20;9.85;;;2.38;;
48052;SDS011;33824;51.600;5.718;2023-02-24T05:48:52;7.95;;;2.13;;
48052;SDS011;33824;51.600;5.718;2023-02-24T05:51:23;10.20;;;1.95;;
48052;SDS011;33824;51.600;5.718;2023-02-24T05:53:50;16.27;;;2.30;;
48052;SDS011;33824;51.600;5.718;2023-02-24T05:56:20;13.18;;;1.88;;
48052;SDS011;33824;51.600;5.718;2023-02-24T05:58:49;18.55;;;2.95;;
48052;SDS011;33824;51.600;5.718;2023-02-24T06:01:30;11.15;;;2.42;;
48052;SDS011;33824;51.600;5.718;2023-02-24T06:04:00;10.25;;;2.00;;
48052;SDS011;33824;51.600;5.718;2023-02-24T06:06:36;15.15;;;2.53;;
48052;SDS011;33824;51.600;5.718;2023-02-24T06:09:04;9.60;;;2.95;;
48052;SDS011;33824;51.600;5.718;2023-02-24T06:11:34;9.63;;;3.25;;
48052;SDS011;33824;51.600;5.718;2023-02-24T06:13:59;10.95;;;1.95;;
48052;SDS011;33824;51.600;5.718;2023-02-24T06:16:26;14.20;;;2.63;;
48052;SDS011;33824;51.600;5.718;2023-02-24T06:18:51;12.90;;;2.70;;
48052;SDS011;33824;51.600;5.718;2023-02-24T06:21:17;10.75;;;2.17;;
48052;SDS011;33824;51.600;5.718;2023-02-24T06:23:44;14.68;;;2.13;;
48052;SDS011;33824;51.600;5.718;2023-02-24T06:26:10;20.63;;;3.47;;
48052;SDS011;33824;51.600;5.718;2023-02-24T06:28:37;11.88;;;2.33;;
48052;SDS011;33824;51.600;5.718;2023-02-24T06:31:05;12.02;;;1.83;;
48052;SDS011;33824;51.600;5.718;2023-02-24T06:33:32;15.13;;;2.65;;
48052;SDS011;33824;51.600;5.718;2023-02-24T06:36:02;14.63;;;2.72;;
48052;SDS011;33824;51.600;5.718;2023-02-24T06:38:32;21.15;;;3.38;;
48052;SDS011;33824;51.600;5.718;2023-02-24T06:41:00;18.80;;;2.30;;
48052;SDS011;33824;51.600;5.718;2023-02-24T06:43:38;16.85;;;2.90;;
48052;SDS011;33824;51.600;5.718;2023-02-24T06:46:09;14.50;;;2.60;;
48052;SDS011;33824;51.600;5.718;2023-02-24T06:48:35;20.38;;;2.28;;
48052;SDS011;33824;51.600;5.718;2023-02-24T06:51:03;10.68;;;2.70;;
48052;SDS011;33824;51.600;5.718;2023-02-24T06:53:37;10.48;;;1.90;;
48052;SDS011;33824;51.600;5.718;2023-02-24T06:56:08;15.68;;;2.40;;
48052;SDS011;33824;51.600;5.718;2023-02-24T06:58:47;12.38;;;2.15;;
48052;SDS011;33824;51.600;5.718;2023-02-24T07:01:21;12.48;;;2.00;;
48052;SDS011;33824;51.600;5.718;2023-02-24T07:03:53;17.27;;;2.13;;
48052;SDS011;33824;51.600;5.718;2023-02-24T07:06:31;18.50;;;2.88;;
48052;SDS011;33824;51.600;5.718;2023-02-24T07:09:03;10.77;;;1.65;;
48052;SDS011;33824;51.600;5.718;2023-02-24T07:11:32;15.65;;;2.15;;
48052;SDS011;33824;51.600;5.718;2023-02-24T07:13:58;11.30;;;1.52;;
48052;SDS011;33824;51.600;5.718;2023-02-24T07:16:25;14.00;;;2.53;;
48052;SDS011;33824;51.600;5.718;2023-02-24T07:18:56;11.57;;;2.38;;
48052;SDS011;33824;51.600;5.718;2023-02-24T07:21:24;15.17;;;1.73;;
48052;SDS011;33824;51.600;5.718;2023-02-24T07:23:52;17.77;;;2.72;;
48052;SDS011;33824;51.600;5.718;2023-02-24T07:26:24;16.33;;;1.92;;
48052;SDS011;33824;51.600;5.718;2023-02-24T07:28:52;16.75;;;2.13;;
48052;SDS011;33824;51.600;5.718;2023-02-24T07:31:20;16.42;;;2.35;;
48052;SDS011;33824;51.600;5.718;2023-02-24T07:33:48;17.15;;;2.40;;
48052;SDS011;33824;51.600;5.718;2023-02-24T07:36:17;30.90;;;2.25;;
48052;SDS011;33824;51.600;5.718;2023-02-24T07:38:48;20.35;;;2.60;;
48052;SDS011;33824;51.600;5.718;2023-02-24T07:41:20;14.77;;;2.83;;
48052;SDS011;33824;51.600;5.718;2023-02-24T07:43:47;13.82;;;2.92;;
48052;SDS011;33824;51.600;5.718;2023-02-24T07:46:18;11.65;;;2.03;;
48052;SDS011;33824;51.600;5.718;2023-02-24T07:48:53;9.93;;;2.20;;
48052;SDS011;33824;51.600;5.718;2023-02-24T07:51:21;9.68;;;1.55;;
48052;SDS011;33824;51.600;5.718;2023-02-24T07:53:49;17.17;;;2.67;;
48052;SDS011;33824;51.600;5.718;2023-02-24T07:56:21;19.73;;;2.63;;
48052;SDS011;33824;51.600;5.718;2023-02-24T07:58:59;16.48;;;2.13;;
48052;SDS011;33824;51.600;5.718;2023-02-24T08:01:27;14.95;;;3.00;;
48052;SDS011;33824;51.600;5.718;2023-02-24T08:03:56;13.18;;;1.73;;
48052;SDS011;33824;51.600;5.718;2023-02-24T08:06:29;10.07;;;2.10;;
48052;SDS011;33824;51.600;5.718;2023-02-24T08:09:09;16.95;;;2.05;;
48052;SDS011;33824;51.600;5.718;2023-02-24T08:11:41;11.57;;;1.65;;
48052;SDS011;33824;51.600;5.718;2023-02-24T08:14:12;11.75;;;1.58;;
48052;SDS011;33824;51.600;5.718;2023-02-24T08:16:40;16.88;;;2.03;;
48052;SDS011;33824;51.600;5.718;2023-02-24T08:19:12;13.35;;;1.85;;
48052;SDS011;33824;51.600;5.718;2023-02-24T08:21:49;10.23;;;1.98;;
48052;SDS011;33824;51.600;5.718;2023-02-24T08:24:18;11.55;;;2.92;;
48052;SDS011;33824;51.600;5.718;2023-02-24T08:26:49;21.23;;;2.28;;
48052;SDS011;33824;51.600;5.718;2023-02-24T08:29:34;13.00;;;2.08;;
48052;SDS011;33824;51.600;5.718;2023-02-24T08:32:08;16.97;;;2.10;;
48052;SDS011;33824;51.600;5.718;2023-02-24T08:34:37;16.63;;;1.80;;
48052;SDS011;33824;51.600;5.718;2023-02-24T08:37:03;18.20;;;1.70;;
48052;SDS011;33824;51.600;5.718;2023-02-24T08:39:30;12.35;;;2.33;;
48052;SDS011;33824;51.600;5.718;2023-02-24T08:42:01;16.48;;;1.70;;
48052;SDS011;33824;51.600;5.718;2023-02-24T08:44:26;17.48;;;2.28;;
48052;SDS011;33824;51.600;5.718;2023-02-24T08:46:53;12.55;;;1.52;;
48052;SDS011;33824;51.600;5.718;2023-02-24T08:49:19;15.90;;;1.80;;
48052;SDS011;33824;51.600;5.718;2023-02-24T08:51:49;12.73;;;1.52;;
48052;SDS011;33824;51.600;5.718;2023-02-24T08:54:18;14.25;;;1.60;;
48052;SDS011;33824;51.600;5.718;2023-02-24T08:56:52;8.82;;;1.25;;
48052;SDS011;33824;51.600;5.718;2023-02-24T08:59:32;9.88;;;1.30;;
48052;SDS011;33824;51.600;5.718;2023-02-24T09:02:14;8.32;;;2.13;;
48052;SDS011;33824;51.600;5.718;2023-02-24T09:07:16;15.82;;;2.33;;
48052;SDS011;33824;51.600;5.718;2023-02-24T09:09:44;17.88;;;2.85;;
48052;SDS011;33824;51.600;5.718;2023-02-24T09:12:11;20.17;;;3.92;;
48052;SDS011;33824;51.600;5.718;2023-02-24T09:14:49;11.48;;;2.00;;
48052;SDS011;33824;51.600;5.718;2023-02-24T09:17:20;13.77;;;1.92;;
48052;SDS011;33824;51.600;5.718;2023-02-24T09:20:22;18.73;;;2.45;;
48052;SDS011;33824;51.600;5.718;2023-02-24T09:22:48;14.80;;;1.63;;
48052;SDS011;33824;51.600;5.718;2023-02-24T09:25:28;14.38;;;1.63;;
48052;SDS011;33824;51.600;5.718;2023-02-24T09:28:06;10.60;;;1.58;;
48052;SDS011;33824;51.600;5.718;2023-02-24T09:30:34;16.35;;;2.90;;
48052;SDS011;33824;51.600;5.718;2023-02-24T09:33:12;5.93;;;1.50;;
48052;SDS011;33824;51.600;5.718;2023-02-24T09:36:05;14.07;;;3.30;;
48052;SDS011;33824;51.600;5.718;2023-02-24T09:38:45;10.43;;;2.00;;
48052;SDS011;33824;51.600;5.718;2023-02-24T09:44:46;14.00;;;2.17;;
48052;SDS011;33824;51.600;5.718;2023-02-24T09:52:44;10.93;;;1.88;;
48052;SDS011;33824;51.600;5.718;2023-02-24T09:55:18;14.35;;;2.33;;
48052;SDS011;33824;51.600;5.718;2023-02-24T09:58:21;13.70;;;1.70;;
48052;SDS011;33824;51.600;5.718;2023-02-24T10:01:16;13.40;;;2.10;;
48052;SDS011;33824;51.600;5.718;2023-02-24T10:06:35;22.42;;;2.40;;
48052;SDS011;33824;51.600;5.718;2023-02-24T10:11:43;11.95;;;2.70;;
48052;SDS011;33824;51.600;5.718;2023-02-24T10:17:14;8.75;;;2.28;;
48052;SDS011;33824;51.600;5.718;2023-02-24T10:19:47;8.50;;;1.73;;
48052;SDS011;33824;51.600;5.718;2023-02-24T10:30:33;12.70;;;2.20;;
48052;SDS011;33824;51.600;5.718;2023-02-24T10:33:16;12.60;;;2.67;;
48052;SDS011;33824;51.600;5.718;2023-02-24T10:35:50;10.82;;;2.38;;
48052;SDS011;33824;51.600;5.718;2023-02-24T10:38:27;15.77;;;2.33;;
48052;SDS011;33824;51.600;5.718;2023-02-24T10:40:53;14.35;;;2.85;;
48052;SDS011;33824;51.600;5.718;2023-02-24T10:43:22;11.90;;;2.38;;
48052;SDS011;33824;51.600;5.718;2023-02-24T10:45:56;13.20;;;2.33;;
48052;SDS011;33824;51.600;5.718;2023-02-24T10:48:31;14.85;;;2.10;;
48052;SDS011;33824;51.600;5.718;2023-02-24T10:51:07;11.23;;;2.40;;
48052;SDS011;33824;51.600;5.718;2023-02-24T10:53:47;11.30;;;2.42;;
48052;SDS011;33824;51.600;5.718;2023-02-24T10:56:33;9.95;;;2.42;;
48052;SDS011;33824;51.600;5.718;2023-02-24T10:59:09;13.18;;;2.55;;
48052;SDS011;33824;51.600;5.718;2023-02-24T11:04:32;18.80;;;2.63;;
48052;SDS011;33824;51.600;5.718;2023-02-24T11:07:20;22.13;;;3.00;;
48052;SDS011;33824;51.600;5.718;2023-02-24T11:12:47;16.80;;;3.03;;
48052;SDS011;33824;51.600;5.718;2023-02-24T11:18:20;12.40;;;2.38;;
48052;SDS011;33824;51.600;5.718;2023-02-24T11:21:01;12.43;;;2.53;;
48052;SDS011;33824;51.600;5.718;2023-02-24T11:23:33;16.20;;;2.83;;
48052;SDS011;33824;51.600;5.718;2023-02-24T11:26:06;14.52;;;2.30;;
48052;SDS011;33824;51.600;5.718;2023-02-24T11:31:47;15.23;;;3.22;;
48052;SDS011;33824;51.600;5.718;2023-02-24T11:37:17;13.32;;;2.30;;
48052;SDS011;33824;51.600;5.718;2023-02-24T11:40:00;11.90;;;2.53;;
48052;SDS011;33824;51.600;5.718;2023-02-24T11:42:31;14.85;;;2.47;;
48052;SDS011;33824;51.600;5.718;2023-02-24T11:45:07;12.60;;;2.90;;
48052;SDS011;33824;51.600;5.718;2023-02-24T11:47:46;12.17;;;4.23;;
48052;SDS011;33824;51.600;5.718;2023-02-24T11:53:52;13.25;;;2.72;;
48052;SDS011;33824;51.600;5.718;2023-02-24T11:56:23;15.93;;;2.88;;
48052;SDS011;33824;51.600;5.718;2023-02-24T12:04:37;22.33;;;4.55;;
48052;SDS011;33824;51.600;5.718;2023-02-24T12:07:14;16.05;;;3.30;;
48052;SDS011;33824;51.600;5.718;2023-02-24T12:12:36;19.45;;;3.78;;
48052;SDS011;33824;51.600;5.718;2023-02-24T12:15:21;19.58;;;3.83;;
48052;SDS011;33824;51.600;5.718;2023-02-24T12:17:52;11.48;;;2.83;;
48052;SDS011;33824;51.600;5.718;2023-02-24T12:20:30;20.30;;;3.72;;
48052;SDS011;33824;51.600;5.718;2023-02-24T12:23:13;22.15;;;3.83;;
48052;SDS011;33824;51.600;5.718;2023-02-24T12:28:57;16.70;;;4.70;;
48052;SDS011;33824;51.600;5.718;2023-02-24T12:40:09;15.40;;;4.00;;
48052;SDS011;33824;51.600;5.718;2023-02-24T12:42:56;13.93;;;4.13;;
48052;SDS011;33824;51.600;5.718;2023-02-24T12:45:42;13.52;;;3.50;;
48052;SDS011;33824;51.600;5.718;2023-02-24T12:59:11;17.30;;;4.28;;
48052;SDS011;33824;51.600;5.718;2023-02-24T13:01:47;18.50;;;4.45;;
48052;SDS011;33824;51.600;5.718;2023-02-24T13:06:52;17.00;;;3.03;;
48052;SDS011;33824;51.600;5.718;2023-02-24T13:12:32;7.60;;;3.65;;
48052;SDS011;33824;51.600;5.718;2023-02-24T13:15:19;14.90;;;2.92;;
48052;SDS011;33824;51.600;5.718;2023-02-24T13:17:48;9.20;;;3.08;;
48052;SDS011;33824;51.600;5.718;2023-02-24T13:20:59;18.52;;;3.25;;
48052;SDS011;33824;51.600;5.718;2023-02-24T13:23:19;9.77;;;3.00;;
48052;SDS011;33824;51.600;5.718;2023-02-24T13:25:52;7.65;;;2.85;;
48052;SDS011;33824;51.600;5.718;2023-02-24T13:30:58;14.32;;;3.53;;
48052;SDS011;33824;51.600;5.718;2023-02-24T13:33:33;10.52;;;2.83;;
48052;SDS011;33824;51.600;5.718;2023-02-24T13:36:12;10.07;;;3.88;;
48052;SDS011;33824;51.600;5.718;2023-02-24T13:41:32;7.95;;;2.58;;
48052;SDS011;33824;51.600;5.718;2023-02-24T13:44:02;7.38;;;3.47;;
48052;SDS011;33824;51.600;5.718;2023-02-24T13:46:52;9.98;;;2.95;;
48052;SDS011;33824;51.600;5.718;2023-02-24T13:49:35;8.35;;;4.30;;
48052;SDS011;33824;51.600;5.718;2023-02-24T13:55:03;9.75;;;2.80;;
48052;SDS011;33824;51.600;5.718;2023-02-24T13:57:55;8.57;;;2.13;;
48052;SDS011;33824;51.600;5.718;2023-02-24T14:03:31;10.63;;;1.77;;
48052;SDS011;33824;51.600;5.718;2023-02-24T14:05:59;11.77;;;2.10;;
48052;SDS011;33824;51.600;5.718;2023-02-24T14:08:42;2.90;;;1.52;;
48052;SDS011;33824;51.600;5.718;2023-02-24T14:11:12;3.83;;;1.48;;
48052;SDS011;33824;51.600;5.718;2023-02-24T14:13:40;4.30;;;1.60;;
48052;SDS011;33824;51.600;5.718;2023-02-24T14:16:13;4.72;;;1.95;;
48052;SDS011;33824;51.600;5.718;2023-02-24T14:18:50;5.70;;;1.80;;
48052;SDS011;33824;51.600;5.718;2023-02-24T14:21:22;10.45;;;2.22;;
48052;SDS011;33824;51.600;5.718;2023-02-24T14:23:57;7.43;;;1.85;;
48052;SDS011;33824;51.600;5.718;2023-02-24T14:26:27;4.68;;;2.03;;
48052;SDS011;33824;51.600;5.718;2023-02-24T14:29:09;7.35;;;2.40;;
48052;SDS011;33824;51.600;5.718;2023-02-24T14:31:35;10.23;;;3.00;;
48052;SDS011;33824;51.600;5.718;2023-02-24T14:34:02;7.88;;;2.90;;
48052;SDS011;33824;51.600;5.718;2023-02-24T14:36:34;24.88;;;4.38;;
48052;SDS011;33824;51.600;5.718;2023-02-24T14:41:32;19.15;;;4.05;;
48052;SDS011;33824;51.600;5.718;2023-02-24T14:44:03;12.70;;;4.13;;
48052;SDS011;33824;51.600;5.718;2023-02-24T14:46:32;14.35;;;3.97;;
48052;SDS011;33824;51.600;5.718;2023-02-24T14:48:59;9.73;;;3.40;;
48052;SDS011;33824;51.600;5.718;2023-02-24T14:51:26;19.27;;;4.38;;
48052;SDS011;33824;51.600;5.718;2023-02-24T14:53:58;12.32;;;4.03;;
48052;SDS011;33824;51.600;5.718;2023-02-24T14:56:29;11.48;;;4.15;;
48052;SDS011;33824;51.600;5.718;2023-02-24T14:58:59;16.02;;;4.05;;
48052;SDS011;33824;51.600;5.718;2023-02-24T15:01:31;11.27;;;4.05;;
48052;SDS011;33824;51.600;5.718;2023-02-24T15:04:09;10.25;;;3.33;;
48052;SDS011;33824;51.600;5.718;2023-02-24T15:06:55;13.68;;;4.03;;
48052;SDS011;33824;51.600;5.718;2023-02-24T15:09:22;12.73;;;4.05;;
48052;SDS011;33824;51.600;5.718;2023-02-24T15:11:52;15.38;;;4.35;;
48052;SDS011;33824;51.600;5.718;2023-02-24T15:14:22;17.58;;;4.30;;
48052;SDS011;33824;51.600;5.718;2023-02-24T15:16:54;15.43;;;4.18;;
48052;SDS011;33824;51.600;5.718;2023-02-24T15:19:25;13.35;;;3.72;;
48052;SDS011;33824;51.600;5.718;2023-02-24T15:21:51;22.25;;;5.68;;
48052;SDS011;33824;51.600;5.718;2023-02-24T15:24:31;12.23;;;4.60;;
48052;SDS011;33824;51.600;5.718;2023-02-24T15:29:39;14.60;;;3.13;;
48052;SDS011;33824;51.600;5.718;2023-02-24T15:32:13;16.50;;;3.47;;
48052;SDS011;33824;51.600;5.718;2023-02-24T15:34:43;10.90;;;2.38;;
48052;SDS011;33824;51.600;5.718;2023-02-24T15:43:15;10.70;;;2.00;;
48052;SDS011;33824;51.600;5.718;2023-02-24T15:45:42;10.55;;;1.85;;
48052;SDS011;33824;51.600;5.718;2023-02-24T15:48:21;14.75;;;2.22;;
48052;SDS011;33824;51.600;5.718;2023-02-24T15:50:49;14.13;;;2.05;;
48052;SDS011;33824;51.600;5.718;2023-02-24T15:53:14;16.92;;;2.20;;
48052;SDS011;33824;51.600;5.718;2023-02-24T15:55:41;7.55;;;1.30;;
48052;SDS011;33824;51.600;5.718;2023-02-24T15:58:17;12.48;;;2.10;;
48052;SDS011;33824;51.600;5.718;2023-02-24T16:00:46;18.35;;;1.98;;
48052;SDS011;33824;51.600;5.718;2023-02-24T16:03:16;13.40;;;1.95;;
48052;SDS011;33824;51.600;5.718;2023-02-24T16:05:42;11.82;;;1.95;;
48052;SDS011;33824;51.600;5.718;2023-02-24T16:08:12;10.50;;;1.50;;
48052;SDS011;33824;51.600;5.718;2023-02-24T16:10:42;17.70;;;2.13;;
48052;SDS011;33824;51.600;5.718;2023-02-24T16:13:12;11.68;;;2.03;;
48052;SDS011;33824;51.600;5.718;2023-02-24T16:15:42;13.10;;;1.95;;
48052;SDS011;33824;51.600;5.718;2023-02-24T16:18:09;10.45;;;2.20;;
48052;SDS011;33824;51.600;5.718;2023-02-24T16:20:43;16.02;;;2.53;;
48052;SDS011;33824;51.600;5.718;2023-02-24T16:23:12;18.02;;;1.88;;
48052;SDS011;33824;51.600;5.718;2023-02-24T16:25:40;17.88;;;2.78;;
48052;SDS011;33824;51.600;5.718;2023-02-24T16:28:17;19.70;;;2.35;;
48052;SDS011;33824;51.600;5.718;2023-02-24T16:30:45;24.23;;;2.97;;
48052;SDS011;33824;51.600;5.718;2023-02-24T16:33:12;12.95;;;2.25;;
48052;SDS011;33824;51.600;5.718;2023-02-24T16:35:40;22.70;;;2.08;;
48052;SDS011;33824;51.600;5.718;2023-02-24T16:38:13;17.85;;;3.40;;
48052;SDS011;33824;51.600;5.718;2023-02-24T16:40:42;16.70;;;2.05;;
48052;SDS011;33824;51.600;5.718;2023-02-24T16:43:09;12.55;;;2.25;;
48052;SDS011;33824;51.600;5.718;2023-02-24T16:45:35;10.68;;;1.50;;
48052;SDS011;33824;51.600;5.718;2023-02-24T16:48:05;12.18;;;1.67;;
48052;SDS011;33824;51.600;5.718;2023-02-24T16:53:02;13.82;;;1.75;;
48052;SDS011;33824;51.600;5.718;2023-02-24T16:55:28;17.05;;;1.58;;
48052;SDS011;33824;51.600;5.718;2023-02-24T16:57:54;14.65;;;2.13;;
48052;SDS011;33824;51.600;5.718;2023-02-24T17:00:19;14.35;;;1.48;;
48052;SDS011;33824;51.600;5.718;2023-02-24T17:02:45;7.78;;;1.25;;
48052;SDS011;33824;51.600;5.718;2023-02-24T17:05:16;12.43;;;1.30;;
48052;SDS011;33824;51.600;5.718;2023-02-24T17:07:47;11.90;;;1.38;;
48052;SDS011;33824;51.600;5.718;2023-02-24T17:10:14;5.85;;;1.15;;
48052;SDS011;33824;51.600;5.718;2023-02-24T17:12:40;5.68;;;0.95;;
48052;SDS011;33824;51.600;5.718;2023-02-24T17:15:07;7.15;;;1.40;;
48052;SDS011;33824;51.600;5.718;2023-02-24T17:17:36;14.98;;;1.40;;
48052;SDS011;33824;51.600;5.718;2023-02-24T17:20:02;9.93;;;1.60;;
48052;SDS011;33824;51.600;5.718;2023-02-24T17:22:28;7.32;;;1.23;;
48052;SDS011;33824;51.600;5.718;2023-02-24T17:24:54;18.60;;;1.50;;
48052;SDS011;33824;51.600;5.718;2023-02-24T17:27:19;3.20;;;0.95;;
48052;SDS011;33824;51.600;5.718;2023-02-24T17:29:45;14.00;;;1.40;;
48052;SDS011;33824;51.600;5.718;2023-02-24T17:32:10;8.30;;;1.95;;
48052;SDS011;33824;51.600;5.718;2023-02-24T17:34:36;14.15;;;1.50;;
48052;SDS011;33824;51.600;5.718;2023-02-24T17:37:01;8.23;;;1.27;;
48052;SDS011;33824;51.600;5.718;2023-02-24T17:39:27;3.78;;;0.70;;